Cave Junction, OR (97523)

5:44 PM PDT on October 20, 2014 (GMT -0700)
Oregon Builders Guild LLC 541-592-6014 | Change Station
CLOSE
Current Station
Personal Weather Station
Location: Cave Junction, OR
Elevation: 1332 ft
Nearby Weather Stations
4.2 Earthquake: Rio Dell, California (1 day ago)  

Elev 1332 ft 42.16 °N, 123.65 °W | Updated 12 minutes ago

Rain
Rain
51.7 °F
Feels Like 51.7 °F
N
0.0
Wind Variable Wind from ENE

Today
High -- | Low -- °F
--% Chance of Precip.
Yesterday
High -- | Low -- °F
Precip. -- in
7:33 AM 6:24 PM
Waning Crescent, 8% visible
Pressure 29.91 in
Visibility 10.0 miles
Clouds Mostly Cloudy 5000 ft
Dew Point 50 °F
Humidity 94%
Rainfall 0.58 in
Snow Depth 0 in
UV 0 out of 12
Pollen .90 out of 12
Air Quality Not available.
Flu Activity Sporadic
METAR KBOK 202356Z AUTO VRB05KT 10SM BKN050 14/12 A2991 RMK AO2 51009 60018 T01380116 10161 20116 SLP127

More Conditions Fewer Conditions

Pressure 29.91 in
Visibility 10.0 miles
Clouds Mostly Cloudy 5000 ft
Dew Point 50 °F
Humidity 94%
Rainfall 0.58 in
Snow Depth 0 in
UV 0 out of 12
Pollen .90 out of 12
Air Quality Not available.
Flu Activity Sporadic
METAR KBOK 202356Z AUTO VRB05KT 10SM BKN050 14/12 A2991 RMK AO2 51009 60018 T01380116 10161 20116 SLP127

More Conditions Fewer Conditions

10-Day Weather Forecast

Almanac

Astronomy

Oct. 20, 2014 Rise Set
Actual Time 7:33 AM PDT 6:24 PM PDT
Civil Twilight 7:04 AM PDT 6:53 PM PDT
Nautical Twilight 6:32 AM PDT 7:25 PM PDT
Astronomical Twilight 5:59 AM PDT 7:58 PM PDT
Moon 4:23 AM PDT (10/20) 4:53 PM PDT (10/20)
Length of Visible Light 11h 48m
Length of Day
10h 51m
Tomorrow will be 2m 42s shorter.
Waning Crescent, 8% of the Moon is Illuminated
Today
Waning Crescent
Oct 23
New
Oct 30
First Quarter
Nov 6
Full
Nov 14
Last Quarter

Today's Extremes

State Highs State Lows

Community

WunderPhotos

Upload Photos

1,763,565 photos uploaded!

Nearby

Snow Depth

Station Depth Elevation
Bigelow Camp 0 in 5120 ft
Big Red Mountain 0 in 6250 ft
Fish Lake 0 in 4665 ft
Billie Creek Divide 0 in 5300 ft
Sevenmile Marsh 0 in 6200 ft

Earthquake Activity

City Distance Mag. Time & Date
Rio Dell, California 134 miles 4.2 7:24 AM PDT
2014-10-19
Minimum magnitude displayed is 2.5.

Coastal Water Temperatures

Place Temperature
No Stations Reporting

Nearby Weather Stations